METAR Data

Data at: 2332 UTC 26 Feb 2020

METAR for:KLEW (Auburn-Lewiston Muni, ME, US)
Text:KLEW 262256Z AUTO 00000KT 10SM SCT060 OVC075 06/M03 A3002 RMK AO2 SLP173 T00561028
Temperature: 5.6°C ( 42°F)
Dewpoint: -2.8°C ( 27°F) [RH = 55%]
Pressure (altimeter):30.02 inches Hg (1016.7 mb) [Sea level pressure: 1017.3 mb]
Winds:calm
Visibility:10 or more sm (16+ km)
Ceiling:7500 feet AGL
Clouds: scattered clouds at 6000 feet AGL, overcast cloud deck at 7500 feet AGL
QC Flag:automated observation with no human augmentation